Time,TemperatureF,DewpointF,PressureIn,WindDirection,WindDirectionDegrees,WindSpeedMPH,WindSpeedGustMPH,Humidity,HourlyPrecipIn,Conditions,Clouds,dailyrainin,SolarRadiationWatts/m^2,SoftwareType,DateUTC
2013-08-29 01:00:00,64.0,64.0,-100.00,SSW,202,0.0,-999.0,99,-99.99,,,-99.99,9.280000,,2013-08-29 05:00:00,
2013-08-29 01:42:00,64.0,64.0,-100.00,SSW,202,0.0,-999.0,99,-99.99,,,-99.99,9.280000,,2013-08-29 05:42:00,
2013-08-29 01:52:00,64.0,64.0,-100.00,SSW,202,0.0,-999.0,99,-99.99,,,-99.99,9.280000,,2013-08-29 05:52:00,
2013-08-29 02:00:00,63.0,63.0,-100.00,NE,45,0.0,-999.0,99,-99.99,,,-99.99,9.280000,,2013-08-29 06:00:00,
2013-08-29 02:43:00,63.0,63.0,-100.00,NE,45,0.0,-999.0,99,-99.99,,,-99.99,9.280000,,2013-08-29 06:43:00,
2013-08-29 02:52:00,63.0,63.0,-100.00,NE,45,0.0,-999.0,99,-99.99,,,-99.99,9.280000,,2013-08-29 06:52:00,
2013-08-29 03:00:00,63.0,63.0,-100.00,ENE,67,0.0,-999.0,100,-99.99,,,-99.99,10.440000,,2013-08-29 07:00:00,
2013-08-29 03:42:00,63.0,63.0,-100.00,ENE,67,0.0,-999.0,100,-99.99,,,-99.99,10.440000,,2013-08-29 07:42:00,
2013-08-29 03:53:00,63.0,63.0,-100.00,ENE,67,0.0,-999.0,100,-99.99,,,-99.99,10.440000,,2013-08-29 07:53:00,
2013-08-29 05:00:00,60.0,60.0,-100.00,ENE,67,0.0,-999.0,100,-99.99,,,-99.99,9.280000,,2013-08-29 09:00:00,
2013-08-29 05:43:00,60.0,60.0,-100.00,ENE,67,0.0,-999.0,100,-99.99,,,-99.99,9.280000,,2013-08-29 09:43:00,
2013-08-29 05:55:00,60.0,60.0,-100.00,ENE,67,0.0,-999.0,100,-99.99,,,-99.99,9.280000,,2013-08-29 09:55:00,
2013-08-29 06:00:00,60.0,60.0,-100.00,ESE,112,0.0,-999.0,100,-99.99,,,-99.99,8.120000,,2013-08-29 10:00:00,
2013-08-29 06:43:00,60.0,60.0,-100.00,ESE,112,0.0,-999.0,100,-99.99,,,-99.99,8.120000,,2013-08-29 10:43:00,
2013-08-29 06:53:00,60.0,60.0,-100.00,ESE,112,0.0,-999.0,100,-99.99,,,-99.99,8.120000,,2013-08-29 10:53:00,
2013-08-29 07:00:00,59.0,59.0,-100.00,ESE,112,0.0,-999.0,100,-99.99,,,-99.99,8.120000,,2013-08-29 11:00:00,
2013-08-29 07:42:00,59.0,59.0,-100.00,ESE,112,0.0,-999.0,100,-99.99,,,-99.99,8.120000,,2013-08-29 11:42:00,
2013-08-29 07:52:00,59.0,59.0,-100.00,ESE,112,0.0,-999.0,100,-99.99,,,-99.99,8.120000,,2013-08-29 11:52:00,
2013-08-29 08:00:00,61.0,61.0,-100.00,ENE,67,0.0,-999.0,100,-99.99,,,-99.99,42.919998,,2013-08-29 12:00:00,
2013-08-29 08:42:00,61.0,61.0,-100.00,ENE,67,0.0,-999.0,100,-99.99,,,-99.99,42.919998,,2013-08-29 12:42:00,
2013-08-29 08:52:00,61.0,61.0,-100.00,ENE,67,0.0,-999.0,100,-99.99,,,-99.99,42.919998,,2013-08-29 12:52:00,
2013-08-29 09:00:00,67.0,67.0,-100.00,NE,45,0.0,-999.0,100,-99.99,,,-99.99,175.160004,,2013-08-29 13:00:00,
2013-08-29 09:42:00,67.0,67.0,-100.00,NE,45,0.0,-999.0,100,-99.99,,,-99.99,175.160004,,2013-08-29 13:42:00,
2013-08-29 09:52:00,67.0,67.0,-100.00,NE,45,0.0,-999.0,100,-99.99,,,-99.99,175.160004,,2013-08-29 13:52:00,
2013-08-29 10:00:00,71.0,68.0,-100.00,ENE,67,2.0,-999.0,92,-99.99,,,-99.99,306.239990,,2013-08-29 14:00:00,
2013-08-29 10:42:00,71.0,68.0,-100.00,ENE,67,2.0,-999.0,92,-99.99,,,-99.99,306.239990,,2013-08-29 14:42:00,
2013-08-29 10:52:00,71.0,68.0,-100.00,ENE,67,2.0,-999.0,92,-99.99,,,-99.99,306.239990,,2013-08-29 14:52:00,
2013-08-29 11:00:00,76.0,69.0,-100.00,East,90,1.0,-999.0,79,-99.99,,,-99.99,438.480011,,2013-08-29 15:00:00,
2013-08-29 11:43:00,76.0,69.0,-100.00,East,90,1.0,-999.0,79,-99.99,,,-99.99,438.480011,,2013-08-29 15:43:00,
2013-08-29 11:53:00,76.0,69.0,-100.00,East,90,1.0,-999.0,79,-99.99,,,-99.99,438.480011,,2013-08-29 15:53:00,
2013-08-29 14:00:00,83.0,69.0,-100.00,ESE,112,1.0,-999.0,62,-99.99,,,-99.99,606.679993,,2013-08-29 18:00:00,
2013-08-29 14:42:00,83.0,69.0,-100.00,ESE,112,1.0,-999.0,62,-99.99,,,-99.99,606.679993,,2013-08-29 18:42:00,
2013-08-29 14:52:00,83.0,69.0,-100.00,ESE,112,1.0,-999.0,62,-99.99,,,-99.99,606.679993,,2013-08-29 18:52:00,
2013-08-29 15:00:00,84.0,68.0,-100.00,SE,135,1.0,-999.0,57,-99.99,,,-99.99,547.520020,,2013-08-29 19:00:00,
2013-08-29 15:42:00,84.0,68.0,-100.00,SE,135,1.0,-999.0,57,-99.99,,,-99.99,547.520020,,2013-08-29 19:42:00,
2013-08-29 15:53:00,84.0,68.0,-100.00,SE,135,1.0,-999.0,57,-99.99,,,-99.99,547.520020,,2013-08-29 19:53:00,
2013-08-29 16:00:00,85.0,67.0,-100.00,ESE,112,1.0,-999.0,54,-99.99,,,-99.99,609.000000,,2013-08-29 20:00:00,
2013-08-29 16:42:00,85.0,67.0,-100.00,ESE,112,1.0,-999.0,54,-99.99,,,-99.99,609.000000,,2013-08-29 20:42:00,
2013-08-29 16:52:00,85.0,67.0,-100.00,ESE,112,1.0,-999.0,54,-99.99,,,-99.99,609.000000,,2013-08-29 20:52:00,
2013-08-29 18:00:00,86.0,67.0,-100.00,ESE,112,1.0,-999.0,52,-99.99,,,-99.99,359.600006,,2013-08-29 22:00:00,
2013-08-29 18:43:00,86.0,67.0,-100.00,ESE,112,1.0,-999.0,52,-99.99,,,-99.99,359.600006,,2013-08-29 22:43:00,
2013-08-29 18:53:00,86.0,67.0,-100.00,ESE,112,1.0,-999.0,52,-99.99,,,-99.99,359.600006,,2013-08-29 22:53:00,
2013-08-29 19:00:00,85.0,67.0,-100.00,ENE,67,0.0,-999.0,55,-99.99,,,-99.99,208.800003,,2013-08-29 23:00:00,
2013-08-29 19:43:00,85.0,67.0,-100.00,ENE,67,0.0,-999.0,55,-99.99,,,-99.99,208.800003,,2013-08-29 23:43:00,
2013-08-29 19:53:00,85.0,67.0,-100.00,ENE,67,0.0,-999.0,55,-99.99,,,-99.99,208.800003,,2013-08-29 23:53:00,
2013-08-29 20:00:00,81.0,70.0,-100.00,ENE,67,0.0,-999.0,69,-99.99,,,-99.99,67.279999,,2013-08-30 00:00:00,
2013-08-29 20:42:00,81.0,70.0,-100.00,ENE,67,0.0,-999.0,69,-99.99,,,-99.99,67.279999,,2013-08-30 00:42:00,
2013-08-29 20:52:00,81.0,70.0,-100.00,ENE,67,0.0,-999.0,69,-99.99,,,-99.99,67.279999,,2013-08-30 00:52:00,
2013-08-29 22:00:00,70.0,69.0,-100.00,ENE,67,0.0,-999.0,96,-99.99,,,-99.99,4.640000,,2013-08-30 02:00:00,
2013-08-29 22:42:00,70.0,69.0,-100.00,ENE,67,0.0,-999.0,96,-99.99,,,-99.99,4.640000,,2013-08-30 02:42:00,
2013-08-29 22:52:00,70.0,69.0,-100.00,ENE,67,0.0,-999.0,96,-99.99,,,-99.99,4.640000,,2013-08-30 02:52:00,
2013-08-29 23:00:00,68.0,68.0,-100.00,ESE,112,0.0,-999.0,98,-99.99,,,-99.99,4.640000,,2013-08-30 03:00:00,
2013-08-29 23:43:00,68.0,68.0,-100.00,ESE,112,0.0,-999.0,98,-99.99,,,-99.99,4.640000,,2013-08-30 03:43:00,
2013-08-29 23:55:00,68.0,68.0,-100.00,ESE,112,0.0,-999.0,98,-99.99,,,-99.99,4.640000,,2013-08-30 03:55:00,